createdAt,value
2022-08-20T00:01:24.385Z,84.05
2022-08-20T00:03:54.516Z,83.18
2022-08-20T00:06:25.695Z,83.88
2022-08-20T00:08:53.805Z,84.13
2022-08-20T00:11:26.205Z,84.73
2022-08-20T00:14:00.879Z,84.91
2022-08-20T00:16:33.054Z,84.51
2022-08-20T00:19:01.380Z,85.93
2022-08-20T00:21:31.582Z,86.90
2022-08-20T00:24:01.703Z,86.48
2022-08-20T00:26:29.821Z,85.20
2022-08-20T00:28:58.091Z,84.31
2022-08-20T00:31:26.437Z,86.00
2022-08-20T00:33:54.697Z,86.15
2022-08-20T00:36:32.334Z,86.96
2022-08-20T00:39:04.903Z,86.61
2022-08-20T00:41:33.087Z,87.11
2022-08-20T00:44:11.033Z,87.16
2022-08-20T00:46:41.945Z,87.62
2022-08-20T00:49:13.411Z,88.19
2022-08-20T00:51:44.446Z,87.43
2022-08-20T00:54:19.042Z,88.38
2022-08-20T00:56:50.259Z,89.11
2022-08-20T00:59:24.394Z,87.86
2022-08-20T01:01:55.479Z,87.12
2022-08-20T01:04:27.619Z,86.12
2022-08-20T01:06:57.371Z,85.87
2022-08-20T01:09:49.905Z,85.71
2022-08-20T01:12:17.174Z,87.46
2022-08-20T01:14:47.734Z,86.52
2022-08-20T01:17:18.844Z,86.14
2022-08-20T01:19:56.275Z,85.97
2022-08-20T01:22:47.159Z,86.44
2022-08-20T01:25:23.909Z,85.56
2022-08-20T01:27:56.151Z,86.51
2022-08-20T01:30:27.744Z,85.40
2022-08-20T01:32:56.218Z,85.33
2022-08-20T01:35:26.065Z,85.90
2022-08-20T01:37:54.462Z,86.27
2022-08-20T01:40:37.009Z,87.14
2022-08-20T01:43:09.949Z,87.30
2022-08-20T01:45:40.143Z,87.84
2022-08-20T01:48:08.951Z,87.32
2022-08-20T01:50:43.106Z,87.05
2022-08-20T01:53:17.766Z,86.43
2022-08-20T01:55:45.933Z,85.53
2022-08-20T01:58:15.728Z,86.37
2022-08-20T02:00:45.095Z,87.01
2022-08-20T02:03:13.496Z,86.74
2022-08-20T02:05:41.611Z,86.83
2022-08-20T02:08:09.975Z,86.57
2022-08-20T02:10:38.245Z,86.46
2022-08-20T02:13:09.143Z,86.65
2022-08-20T02:15:39.784Z,86.70
2022-08-20T02:18:14.410Z,86.87
2022-08-20T02:20:44.541Z,86.77
2022-08-20T02:23:15.670Z,87.06
2022-08-20T02:25:45.680Z,87.41
2022-08-20T02:28:16.876Z,87.57
2022-08-20T02:30:48.981Z,87.44
2022-08-20T02:33:19.682Z,87.74
2022-08-20T02:35:53.908Z,87.64
2022-08-20T02:38:22.118Z,87.77
2022-08-20T02:40:52.038Z,87.61
2022-08-20T02:43:20.501Z,87.52
2022-08-20T02:45:49.989Z,87.25
2022-08-20T02:48:22.244Z,87.36
2022-08-20T02:50:54.727Z,87.40
2022-08-20T02:53:23.230Z,88.40
2022-08-20T02:55:51.591Z,88.94
2022-08-20T02:58:20.926Z,88.27
2022-08-20T03:00:53.224Z,88.22
2022-08-20T03:03:22.895Z,88.75
2022-08-20T03:05:58.112Z,88.33
2022-08-20T03:08:27.572Z,88.01
2022-08-20T03:10:55.875Z,88.46
2022-08-20T03:13:24.991Z,88.03
2022-08-20T03:15:59.029Z,87.39
2022-08-20T03:18:31.282Z,88.30
2022-08-20T03:21:01.526Z,89.07
2022-08-20T03:23:30.349Z,89.08
2022-08-20T03:25:58.968Z,88.87
2022-08-20T03:28:28.461Z,89.28
2022-08-20T03:31:00.575Z,88.60
2022-08-20T03:33:29.220Z,87.68
2022-08-20T03:35:59.442Z,86.89
2022-08-20T03:38:33.134Z,88.19
2022-08-20T03:41:02.062Z,87.92
2022-08-20T03:43:30.792Z,87.00
2022-08-20T03:46:00.567Z,86.58
2022-08-20T03:48:29.273Z,86.65
2022-08-20T03:50:58.637Z,86.90
2022-08-20T03:53:31.678Z,87.05
2022-08-20T03:56:04.552Z,87.42
2022-08-20T03:58:36.541Z,87.19
2022-08-20T04:01:36.268Z,87.62
2022-08-20T04:03:58.771Z,87.72
2022-08-20T04:06:27.896Z,87.95
2022-08-20T04:08:56.212Z,88.08
2022-08-20T04:11:24.818Z,88.01
2022-08-20T04:13:53.022Z,88.27
2022-08-20T04:16:23.932Z,88.86
2022-08-20T04:19:01.902Z,88.19
2022-08-20T04:21:32.717Z,88.79
2022-08-20T04:24:02.435Z,87.73
2022-08-20T04:26:31.374Z,87.66
2022-08-20T04:28:59.812Z,87.13
2022-08-20T04:31:33.206Z,87.84
2022-08-20T04:34:02.166Z,88.38
2022-08-20T04:36:30.242Z,88.78
2022-08-20T04:38:58.363Z,88.64
2022-08-20T04:41:26.451Z,88.61
2022-08-20T04:43:56.462Z,87.81
2022-08-20T04:46:28.755Z,88.43
2022-08-20T04:49:00.878Z,88.26
2022-08-20T04:51:29.381Z,87.41
2022-08-20T04:54:00.025Z,87.17
2022-08-20T04:56:30.653Z,87.18
2022-08-20T04:59:00.830Z,87.80
2022-08-20T05:01:31.176Z,88.07
2022-08-20T05:04:01.321Z,88.46
2022-08-20T05:06:32.418Z,88.70
2022-08-20T05:09:01.685Z,88.65
2022-08-20T05:11:35.375Z,89.19
2022-08-20T05:14:07.931Z,88.23
2022-08-20T05:16:39.553Z,87.97
2022-08-20T05:19:11.488Z,87.79
2022-08-20T05:21:40.362Z,88.81
2022-08-20T05:24:10.245Z,90.58
2022-08-20T05:26:38.493Z,89.54
2022-08-20T05:29:07.696Z,88.21
2022-08-20T05:31:36.598Z,87.82
2022-08-20T05:34:10.018Z,88.31
2022-08-20T05:36:41.581Z,87.67
2022-08-20T05:39:10.543Z,87.39
2022-08-20T05:41:39.662Z,87.00
2022-08-20T05:44:13.578Z,87.47
2022-08-20T05:46:43.648Z,88.35
2022-08-20T05:49:13.720Z,87.95
2022-08-20T05:51:43.314Z,87.83
2022-08-20T05:54:11.481Z,87.19
2022-08-20T05:56:39.982Z,87.36
2022-08-20T05:59:09.473Z,87.89
2022-08-20T06:01:39.390Z,86.80
2022-08-20T06:04:27.115Z,87.55
2022-08-20T06:07:07.086Z,87.86
2022-08-20T06:09:36.462Z,87.76
2022-08-20T06:12:09.039Z,86.57
2022-08-20T06:14:37.509Z,85.01
2022-08-20T06:17:07.760Z,85.06
2022-08-20T06:19:37.502Z,84.17
2022-08-20T06:22:18.082Z,84.61
2022-08-20T06:24:49.962Z,84.72
2022-08-20T06:27:19.172Z,85.29
2022-08-20T06:29:47.878Z,84.25
2022-08-20T06:32:16.522Z,84.20
2022-08-20T06:34:50.732Z,84.34
2022-08-20T06:37:30.978Z,84.07
2022-08-20T06:40:03.108Z,84.20
2022-08-20T06:42:31.362Z,84.29
2022-08-20T06:45:00.570Z,83.77
2022-08-20T06:47:29.260Z,83.75
2022-08-20T06:49:57.341Z,83.42
2022-08-20T06:52:51.549Z,82.70
2022-08-20T06:55:16.568Z,82.68
2022-08-20T06:57:45.049Z,82.45
2022-08-20T07:00:18.458Z,82.48
2022-08-20T07:02:48.238Z,81.75
2022-08-20T07:05:16.778Z,81.46
2022-08-20T07:07:49.585Z,81.72
2022-08-20T07:10:19.572Z,82.45
2022-08-20T07:12:50.499Z,83.60
2022-08-20T07:15:20.049Z,83.94
2022-08-20T07:17:51.420Z,82.99
2022-08-20T07:20:20.214Z,83.18
2022-08-20T07:22:50.302Z,84.87
2022-08-20T07:25:21.103Z,86.59
2022-08-20T07:27:52.454Z,84.34
2022-08-20T07:30:56.024Z,84.69
2022-08-20T07:33:31.360Z,83.32
2022-08-20T07:36:02.118Z,83.78
2022-08-20T07:38:32.704Z,84.53
2022-08-20T07:41:04.005Z,84.59
2022-08-20T07:43:33.940Z,85.87
2022-08-20T07:46:03.262Z,86.72
2022-08-20T07:48:32.741Z,86.42
2022-08-20T07:51:03.613Z,87.52
2022-08-20T07:53:35.792Z,87.08
2022-08-20T07:56:06.648Z,88.10
2022-08-20T07:58:36.849Z,86.91
2022-08-20T08:01:06.682Z,88.14
2022-08-20T08:03:39.384Z,88.44
2022-08-20T08:06:28.313Z,88.16
2022-08-20T08:09:03.101Z,88.58
2022-08-20T08:11:33.900Z,87.46
2022-08-20T08:14:02.400Z,87.37
2022-08-20T08:16:32.485Z,87.13
2022-08-20T08:19:02.294Z,86.90
2022-08-20T08:21:32.134Z,86.73
2022-08-20T08:24:02.783Z,85.95
2022-08-20T08:26:31.508Z,86.03
2022-08-20T08:28:59.848Z,86.10
2022-08-20T08:31:28.205Z,85.93
2022-08-20T08:33:56.826Z,85.98
2022-08-20T08:36:26.983Z,85.99
2022-08-20T08:38:56.708Z,86.63
2022-08-20T08:41:31.786Z,86.63
2022-08-20T08:44:06.126Z,86.25
2022-08-20T08:46:40.503Z,86.58
2022-08-20T08:49:12.674Z,87.55
2022-08-20T08:51:43.999Z,87.86
2022-08-20T08:54:17.892Z,87.99
2022-08-20T08:56:49.744Z,88.22
2022-08-20T08:59:19.867Z,88.78
2022-08-20T09:01:53.750Z,88.62
2022-08-20T09:04:32.009Z,89.14
2022-08-20T09:07:02.766Z,88.92
2022-08-20T09:09:35.728Z,89.02
2022-08-20T09:12:11.912Z,90.28
2022-08-20T09:14:41.380Z,90.89
2022-08-20T09:17:09.820Z,89.60
2022-08-20T09:19:38.776Z,90.22
2022-08-20T09:22:13.518Z,90.11
2022-08-20T09:24:44.891Z,90.97
2022-08-20T09:27:15.407Z,90.36
2022-08-20T09:29:44.078Z,89.62
2022-08-20T09:32:18.812Z,89.39
2022-08-20T09:34:52.643Z,89.28
2022-08-20T09:37:21.066Z,89.65
2022-08-20T09:39:49.446Z,89.46
2022-08-20T09:42:23.287Z,89.12
2022-08-20T09:44:52.035Z,89.95
2022-08-20T09:47:20.371Z,90.30
2022-08-20T09:49:49.040Z,90.50
2022-08-20T09:52:24.050Z,90.73
2022-08-20T09:54:59.482Z,90.51
2022-08-20T09:57:31.628Z,91.06
2022-08-20T10:00:01.859Z,90.32
2022-08-20T10:02:40.145Z,89.36
2022-08-20T10:05:09.372Z,88.82
2022-08-20T10:07:41.610Z,89.11
2022-08-20T10:10:15.327Z,89.33
2022-08-20T10:12:47.563Z,89.12
2022-08-20T10:15:17.900Z,89.14
2022-08-20T10:17:45.999Z,88.99
2022-08-20T10:20:15.801Z,89.38
2022-08-20T10:22:48.001Z,89.63
2022-08-20T10:25:16.838Z,89.87
2022-08-20T10:27:46.783Z,89.93
2022-08-20T10:30:15.116Z,89.97
2022-08-20T10:32:43.926Z,90.75
2022-08-20T10:35:12.311Z,90.73
2022-08-20T10:37:40.437Z,91.79
2022-08-20T10:40:09.943Z,90.01
2022-08-20T10:42:42.517Z,91.11
2022-08-20T10:45:13.302Z,89.94
2022-08-20T10:47:42.063Z,87.34
2022-08-20T10:50:13.075Z,86.06
2022-08-20T10:52:41.442Z,87.17
2022-08-20T10:55:10.570Z,85.85
2022-08-20T10:57:43.427Z,86.53
2022-08-20T11:00:17.080Z,87.13
2022-08-20T11:02:45.550Z,88.24
2022-08-20T11:05:13.713Z,88.29
2022-08-20T11:08:08.471Z,86.08
2022-08-20T11:10:34.478Z,85.16
2022-08-20T11:13:03.716Z,84.64
2022-08-20T11:15:34.739Z,85.47
2022-08-20T11:18:03.252Z,86.53
2022-08-20T11:20:32.122Z,85.14
2022-08-20T11:23:00.961Z,84.94
2022-08-20T11:25:30.728Z,87.65
2022-08-20T11:27:59.287Z,85.05
2022-08-20T11:30:30.674Z,84.89
2022-08-20T11:33:01.674Z,85.14
2022-08-20T11:35:48.696Z,83.46
2022-08-20T11:38:18.001Z,84.84
2022-08-20T11:40:47.467Z,83.81
2022-08-20T11:43:17.266Z,85.78
2022-08-20T11:45:47.589Z,85.37
2022-08-20T11:48:18.188Z,84.49
2022-08-20T11:50:47.490Z,82.54
2022-08-20T11:53:22.332Z,82.13
2022-08-20T11:55:50.751Z,83.52
2022-08-20T11:58:19.268Z,82.62
2022-08-20T12:00:47.642Z,81.44
2022-08-20T12:03:17.569Z,81.65
2022-08-20T12:05:47.783Z,82.53
2022-08-20T12:08:27.058Z,81.44
2022-08-20T12:10:56.400Z,80.78
2022-08-20T12:13:43.923Z,81.81
2022-08-20T12:16:14.493Z,82.40
2022-08-20T12:18:44.101Z,81.64
2022-08-20T12:21:12.481Z,80.79
2022-08-20T12:23:40.686Z,82.10
2022-08-20T12:26:11.377Z,80.72
2022-08-20T12:28:39.840Z,80.98
2022-08-20T12:31:11.964Z,81.23
2022-08-20T12:33:40.135Z,81.49
2022-08-20T12:36:11.072Z,80.62
2022-08-20T12:38:44.322Z,79.23
2022-08-20T12:41:12.534Z,79.19
2022-08-20T12:43:40.719Z,80.33
2022-08-20T12:46:09.160Z,80.55
2022-08-20T12:48:38.254Z,79.00
2022-08-20T12:51:09.809Z,80.12
2022-08-20T12:53:38.593Z,79.40
2022-08-20T12:56:07.414Z,80.23
2022-08-20T12:58:35.651Z,79.98
2022-08-20T13:01:03.933Z,81.40
2022-08-20T13:03:43.153Z,81.88
2022-08-20T13:06:16.890Z,80.23
2022-08-20T13:08:47.660Z,80.83
2022-08-20T13:11:15.917Z,81.21
2022-08-20T13:13:46.626Z,81.29
2022-08-20T13:16:14.796Z,81.61
2022-08-20T13:18:43.015Z,80.53
2022-08-20T13:21:11.503Z,81.19
2022-08-20T13:23:45.433Z,80.01
2022-08-20T13:26:18.073Z,79.20
2022-08-20T13:28:47.545Z,80.81
2022-08-20T13:31:15.886Z,79.85
2022-08-20T13:33:44.081Z,80.77
2022-08-20T13:36:15.457Z,80.41
2022-08-20T13:38:45.091Z,78.92
2022-08-20T13:41:13.216Z,79.79
2022-08-20T13:43:48.549Z,81.46
2022-08-20T13:46:16.690Z,80.04
2022-08-20T13:48:45.043Z,80.56
2022-08-20T13:51:13.246Z,79.81
2022-08-20T13:53:42.696Z,78.98
2022-08-20T13:56:13.559Z,78.02
2022-08-20T13:58:41.714Z,79.32
2022-08-20T14:01:16.929Z,78.90
2022-08-20T14:03:46.659Z,77.71
2022-08-20T14:06:15.113Z,77.90
2022-08-20T14:08:44.248Z,76.81
2022-08-20T14:11:17.623Z,77.12
2022-08-20T14:13:46.039Z,74.72
2022-08-20T14:16:21.367Z,74.78
2022-08-20T14:18:57.579Z,75.66
2022-08-20T14:21:26.167Z,75.60
2022-08-20T14:23:55.560Z,75.94
2022-08-20T14:26:26.253Z,75.15
2022-08-20T14:28:55.436Z,76.31
2022-08-20T14:31:26.879Z,75.27
2022-08-20T14:33:55.431Z,75.66
2022-08-20T14:36:23.533Z,76.49
2022-08-20T14:38:52.036Z,75.51
2022-08-20T14:41:21.210Z,75.46
2022-08-20T14:43:51.712Z,75.66
2022-08-20T14:46:20.168Z,74.70
2022-08-20T14:48:52.529Z,75.45
2022-08-20T14:51:23.930Z,75.34
2022-08-20T14:53:53.184Z,75.53
2022-08-20T14:56:21.363Z,74.77
2022-08-20T14:58:50.766Z,75.62
2022-08-20T15:01:24.296Z,76.25
2022-08-20T15:03:53.533Z,76.10
2022-08-20T15:06:22.283Z,74.67
2022-08-20T15:08:51.602Z,75.08
2022-08-20T15:11:23.880Z,75.76
2022-08-20T15:13:56.358Z,76.07
2022-08-20T15:16:28.450Z,76.95
2022-08-20T15:19:01.249Z,76.22
2022-08-20T15:21:30.302Z,76.27
2022-08-20T15:24:15.793Z,76.25
2022-08-20T15:26:49.271Z,75.60
2022-08-20T15:29:23.263Z,76.40
2022-08-20T15:31:54.552Z,75.34
2022-08-20T15:34:23.774Z,75.42
2022-08-20T15:36:51.988Z,75.70
2022-08-20T15:39:20.053Z,76.08
2022-08-20T15:41:50.345Z,76.60
2022-08-20T15:44:25.647Z,77.00
2022-08-20T15:46:55.216Z,76.96
2022-08-20T15:49:27.346Z,76.98
2022-08-20T15:51:59.013Z,76.89
2022-08-20T15:54:29.263Z,77.08
2022-08-20T15:57:07.483Z,77.92
2022-08-20T15:59:55.356Z,77.96
2022-08-20T16:02:49.267Z,78.08
2022-08-20T16:05:27.954Z,77.61
2022-08-20T16:08:09.032Z,77.92
2022-08-20T16:10:51.497Z,78.57
2022-08-20T16:13:32.449Z,78.94
2022-08-20T16:16:28.267Z,78.74
2022-08-20T16:19:00.582Z,79.75
2022-08-20T16:21:32.362Z,79.01
2022-08-20T16:24:04.547Z,79.42
2022-08-20T16:26:58.122Z,80.09
2022-08-20T16:29:34.589Z,80.77
2022-08-20T16:32:10.537Z,79.40
2022-08-20T16:34:46.826Z,79.97
2022-08-20T16:38:08.793Z,78.94
2022-08-20T16:40:47.157Z,79.01
2022-08-20T16:43:26.384Z,80.43
2022-08-20T16:46:22.196Z,79.60
2022-08-20T16:48:58.002Z,79.71
2022-08-20T16:51:39.202Z,79.15
2022-08-20T16:54:11.148Z,79.15
2022-08-20T16:56:42.028Z,78.71
2022-08-20T16:59:12.658Z,79.11
2022-08-20T17:02:23.826Z,79.48
2022-08-20T17:05:02.169Z,77.87
2022-08-20T17:07:46.833Z,79.68
2022-08-20T17:10:25.394Z,80.30
2022-08-20T17:13:00.067Z,79.49
2022-08-20T17:15:30.185Z,78.96
2022-08-20T17:17:58.731Z,78.79
2022-08-20T17:20:29.684Z,78.73
2022-08-20T17:23:14.812Z,78.46
2022-08-20T17:25:43.145Z,77.47
2022-08-20T17:28:16.407Z,79.60
2022-08-20T17:30:46.625Z,78.97
2022-08-20T17:33:27.163Z,79.27
2022-08-20T17:35:58.850Z,79.66
2022-08-20T17:38:38.049Z,80.05
2022-08-20T17:41:16.593Z,80.01
2022-08-20T17:43:46.170Z,79.86
2022-08-20T17:46:17.952Z,79.43
2022-08-20T17:48:48.253Z,80.56
2022-08-20T17:51:20.353Z,80.74
2022-08-20T17:53:53.288Z,81.07
2022-08-20T17:56:24.347Z,81.12
2022-08-20T17:58:59.083Z,80.56
2022-08-20T18:01:32.040Z,80.40
2022-08-20T18:04:03.222Z,80.36
2022-08-20T18:06:38.483Z,80.21
2022-08-20T18:09:16.827Z,79.68
2022-08-20T18:11:50.327Z,79.45
2022-08-20T18:14:29.106Z,80.27
2022-08-20T18:17:11.936Z,81.76
2022-08-20T18:20:06.399Z,81.69
2022-08-20T18:22:46.682Z,82.97
2022-08-20T18:25:26.431Z,81.84
2022-08-20T18:27:59.495Z,81.60
2022-08-20T18:30:28.135Z,82.13
2022-08-20T18:33:07.291Z,81.70
2022-08-20T18:35:50.676Z,82.55
2022-08-20T18:38:29.700Z,83.29
2022-08-20T18:41:27.935Z,84.20
2022-08-20T18:44:08.118Z,84.53
2022-08-20T18:46:38.106Z,84.91
2022-08-20T18:49:09.571Z,84.89
2022-08-20T18:51:42.556Z,84.67
2022-08-20T18:54:24.387Z,83.72
2022-08-20T18:57:06.630Z,84.04
2022-08-20T18:59:42.181Z,84.06
2022-08-20T19:02:20.990Z,84.33
2022-08-20T19:05:02.287Z,83.44
2022-08-20T19:07:48.089Z,84.24
2022-08-20T19:10:35.721Z,83.57
2022-08-20T19:13:46.131Z,84.73
2022-08-20T19:16:21.289Z,85.77
2022-08-20T19:18:53.167Z,85.98
2022-08-20T19:21:26.499Z,86.16
2022-08-20T19:23:59.300Z,86.47
2022-08-20T19:26:31.517Z,86.18
2022-08-20T19:29:05.479Z,85.88
2022-08-20T19:31:35.620Z,86.21
2022-08-20T19:34:19.968Z,86.37
2022-08-20T19:36:55.767Z,86.69
2022-08-20T19:39:31.428Z,87.31
2022-08-20T19:42:02.815Z,87.00
2022-08-20T19:44:42.251Z,87.14
2022-08-20T19:47:20.062Z,87.42
2022-08-20T19:49:58.642Z,87.48
2022-08-20T19:52:38.713Z,87.88
2022-08-20T19:55:18.606Z,87.80
2022-08-20T19:57:55.421Z,88.03
2022-08-20T20:00:27.597Z,87.62
2022-08-20T20:02:56.172Z,87.75
2022-08-20T20:05:26.585Z,87.92
2022-08-20T20:07:59.994Z,87.87
2022-08-20T20:10:36.819Z,87.53
2022-08-20T20:13:10.370Z,87.70
2022-08-20T20:15:41.056Z,87.73
2022-08-20T20:18:10.979Z,87.75
2022-08-20T20:20:57.142Z,87.98
2022-08-20T20:23:45.694Z,87.94
2022-08-20T20:26:20.013Z,87.87
2022-08-20T20:28:51.630Z,88.21
2022-08-20T20:31:28.373Z,88.45
2022-08-20T20:33:58.770Z,88.30
2022-08-20T20:36:36.798Z,88.49
2022-08-20T20:39:14.347Z,88.47
2022-08-20T20:41:52.358Z,88.15
2022-08-20T20:44:23.338Z,87.99
2022-08-20T20:47:01.125Z,87.98
2022-08-20T20:49:32.126Z,87.60
2022-08-20T20:52:01.976Z,88.02
2022-08-20T20:54:41.666Z,87.72
2022-08-20T20:57:37.982Z,87.71
2022-08-20T21:00:11.677Z,87.80
2022-08-20T21:02:41.591Z,87.91
2022-08-20T21:05:10.880Z,87.34
2022-08-20T21:07:50.686Z,86.97
2022-08-20T21:10:39.460Z,87.37
2022-08-20T21:13:12.576Z,87.03
2022-08-20T21:15:46.725Z,87.11
2022-08-20T21:18:41.998Z,86.66
2022-08-20T21:21:12.325Z,86.73
2022-08-20T21:23:41.837Z,86.75
2022-08-20T21:27:05.317Z,86.60
2022-08-20T21:30:00.357Z,86.65
2022-08-20T21:32:30.578Z,86.65
2022-08-20T21:35:50.238Z,86.29
2022-08-20T21:38:19.975Z,86.03
2022-08-20T21:40:50.106Z,85.43
2022-08-20T21:43:19.560Z,86.23
2022-08-20T21:45:49.659Z,86.10
2022-08-20T21:48:18.361Z,86.22
2022-08-20T21:50:46.480Z,85.79
2022-08-20T21:53:31.544Z,86.39
2022-08-20T21:56:04.270Z,86.29
2022-08-20T21:58:46.709Z,86.86
2022-08-20T22:01:16.670Z,87.24
2022-08-20T22:03:54.599Z,87.57
2022-08-20T22:06:49.745Z,87.60
2022-08-20T22:09:24.240Z,87.62
2022-08-20T22:11:55.125Z,87.55
2022-08-20T22:14:24.637Z,87.45
2022-08-20T22:16:52.768Z,87.57
2022-08-20T22:20:11.692Z,87.34
2022-08-20T22:22:39.993Z,86.89
2022-08-20T22:25:15.894Z,86.96
2022-08-20T22:27:45.967Z,86.66
2022-08-20T22:30:42.898Z,86.02
2022-08-20T22:34:11.445Z,86.01
2022-08-20T22:37:07.749Z,86.52
2022-08-20T22:39:38.997Z,86.48
2022-08-20T22:43:05.526Z,87.02
2022-08-20T22:46:02.209Z,87.08
2022-08-20T22:48:46.449Z,87.01
2022-08-20T22:51:42.999Z,87.06
2022-08-20T22:54:20.599Z,86.98
2022-08-20T22:56:50.991Z,86.99
2022-08-20T22:59:21.519Z,86.73
2022-08-20T23:01:52.580Z,86.68
2022-08-20T23:04:32.818Z,86.65
2022-08-20T23:07:28.865Z,86.80
2022-08-20T23:10:00.835Z,86.98
2022-08-20T23:12:55.147Z,86.65
2022-08-20T23:15:29.043Z,86.70
2022-08-20T23:18:25.035Z,86.53
2022-08-20T23:20:56.362Z,86.40
2022-08-20T23:23:25.423Z,86.45
2022-08-20T23:25:56.330Z,86.35
2022-08-20T23:28:26.879Z,86.25
2022-08-20T23:31:08.185Z,86.78
2022-08-20T23:33:44.691Z,86.48
2022-08-20T23:36:26.030Z,86.56
2022-08-20T23:38:54.496Z,86.53
2022-08-20T23:41:24.632Z,86.75
2022-08-20T23:44:01.454Z,86.76
2022-08-20T23:46:37.575Z,86.87
2022-08-20T23:49:07.467Z,86.81
2022-08-20T23:51:35.610Z,86.68
2022-08-20T23:54:09.286Z,86.90
2022-08-20T23:56:41.790Z,86.67
2022-08-20T23:59:17.702Z,86.89
